Time;durP1;ratioP1;P1;durP2;ratioP2;P2;SDS_P1;SDS_P2;PMS_P1;PMS_P2;Temp;Humidity;BMP_temperature;BMP_pressure;BME280_temperature;BME280_humidity;BME280_pressure;Samples;Min_cycle;Max_cycle;Signal;HPM_P1;HPM_P2
2021/11/02 00:00:03;;;;;;;;;;;;;;;12.26;58.82;96895.42;1733883;80;24793;-88
2021/11/02 00:02:31;;;;;;;;;;;;;;;12.25;58.83;96891.15;1751752;80;20194;-87
2021/11/02 00:04:59;;;;;;;;;;;;;;;12.25;58.87;96879.83;1737934;81;26035;-88
2021/11/02 00:07:26;;;;;;;;;;;;;;;12.25;58.88;96888.53;1709571;82;25050;-88
2021/11/02 00:10:02;;;;;;;;;;;;;;;12.22;58.92;96877.02;1741463;80;20840;-88
2021/11/02 00:12:29;;;;;;;;;;;;;;;12.20;58.96;96877.69;1731149;80;24766;-88
2021/11/02 00:14:55;;;;;;;;;;;;;;;12.21;59.00;96874.09;1738539;80;22037;-88
2021/11/02 00:17:24;;;;;;;;;;;;;;;12.22;59.01;96880.16;1737313;80;25968;-87
2021/11/02 00:19:52;;;;;;;;;;;;;;;12.20;59.03;96881.61;1734541;80;24651;-87
2021/11/02 00:22:17;;;;;;;;;;;;;;;12.18;59.05;96878.31;1733339;80;20205;-83
2021/11/02 00:27:23;;;;;;;;;;;;;;;12.16;59.13;96867.97;1741169;80;21964;-86
2021/11/02 00:29:49;;;;;;;;;;;;;;;12.19;59.16;96864.72;1746784;80;26072;-87
2021/11/02 00:32:15;;;;;;;;;;;;;;;12.21;59.20;96863.59;1739885;80;24501;-84
2021/11/02 00:34:44;;;;;;;;;;;;;;;12.24;59.25;96863.76;1730576;82;20297;-84
2021/11/02 00:37:10;;;;;;;;;;;;;;;12.25;59.29;96861.47;1736132;80;24824;-84
2021/11/02 00:39:36;;;;;;;;;;;;;;;12.27;59.32;96862.98;1699271;82;22126;-87
2021/11/02 00:42:02;;;;;;;;;;;;;;;12.28;59.34;96851.97;1720426;81;25899;-87
2021/11/02 00:44:36;;;;;;;;;;;;;;;12.29;59.37;96852.31;1732274;82;24347;-83
2021/11/02 00:47:02;;;;;;;;;;;;;;;12.32;59.41;96858.57;1729532;82;20282;-84
2021/11/02 00:49:32;;;;;;;;;;;;;;;12.28;59.45;96850.66;1752806;80;25514;-83
2021/11/02 00:51:58;;;;;;;;;;;;;;;12.25;59.45;96849.67;1754429;79;21945;-87
2021/11/02 00:54:24;;;;;;;;;;;;;;;12.26;59.48;96844.77;1753166;80;21012;-85
2021/11/02 00:56:51;;;;;;;;;;;;;;;12.28;59.52;96840.98;1765129;79;24793;-88
2021/11/02 00:59:17;;;;;;;;;;;;;;;12.29;59.55;96849.20;1770695;79;20577;-83
2021/11/02 01:01:43;;;;;;;;;;;;;;;12.31;59.58;96847.73;1762604;79;24576;-87
2021/11/02 01:04:09;;;;;;;;;;;;;;;12.32;59.62;96847.59;1753995;79;21934;-84
2021/11/02 01:06:36;;;;;;;;;;;;;;;12.33;59.63;96849.73;1760502;80;26574;-84
2021/11/02 01:09:04;;;;;;;;;;;;;;;12.32;59.65;96841.52;1764986;79;24691;-86
2021/11/02 01:11:30;;;;;;;;;;;;;;;12.34;59.68;96841.67;1755911;79;20458;-85
2021/11/02 01:13:56;;;;;;;;;;;;;;;12.34;59.69;96835.12;1763028;80;25354;-86
2021/11/02 01:16:25;;;;;;;;;;;;;;;12.37;59.72;96834.00;1761976;79;22130;-85
2021/11/02 01:18:52;;;;;;;;;;;;;;;12.39;59.74;96832.84;1751205;80;26195;-84
2021/11/02 01:21:19;;;;;;;;;;;;;;;12.38;59.76;96833.82;1758217;79;24430;-85
2021/11/02 01:23:45;;;;;;;;;;;;;;;12.35;59.77;96828.91;1760772;80;20210;-85
2021/11/02 01:26:14;;;;;;;;;;;;;;;12.35;59.79;96828.91;1758443;80;20278;-88
2021/11/02 01:28:45;;;;;;;;;;;;;;;12.36;59.83;96828.41;1742062;80;21958;-86
2021/11/02 01:31:11;;;;;;;;;;;;;;;12.35;59.87;96830.21;1757436;79;26035;-86
2021/11/02 01:33:39;;;;;;;;;;;;;;;12.35;59.92;96839.88;1737998;81;24506;-86
2021/11/02 01:36:07;;;;;;;;;;;;;;;12.37;60.04;96834.00;1751534;80;20187;-84
2021/11/02 01:38:33;;;;;;;;;;;;;;;12.33;60.23;96840.55;1755200;80;24899;-88
2021/11/02 01:40:59;;;;;;;;;;;;;;;12.28;60.44;96838.85;1742541;80;20230;-87
2021/11/02 01:43:25;;;;;;;;;;;;;;;12.25;60.72;96832.63;1754947;79;26643;-87
2021/11/02 01:45:54;;;;;;;;;;;;;;;12.15;60.94;96833.57;1759676;79;20267;-89
2021/11/02 01:48:24;;;;;;;;;;;;;;;12.08;61.15;96834.34;1806149;78;20506;-89
2021/11/02 01:50:51;;;;;;;;;;;;;;;12.01;61.40;96830.20;1757593;80;24747;-89
2021/11/02 01:53:17;;;;;;;;;;;;;;;11.96;61.65;96825.91;1789760;78;21977;-87
2021/11/02 01:55:43;;;;;;;;;;;;;;;11.90;61.87;96820.45;1797325;78;25981;-84
2021/11/02 01:58:11;;;;;;;;;;;;;;;11.81;62.11;96820.91;1779753;79;24471;-90
2021/11/02 02:00:39;;;;;;;;;;;;;;;11.72;62.35;96814.77;1791353;78;20263;-90
2021/11/02 02:03:23;;;;;;;;;;;;;;;11.64;62.57;96807.33;1795312;78;24737;-83
2021/11/02 02:05:52;;;;;;;;;;;;;;;11.60;62.83;96802.06;1764306;80;22009;-89
2021/11/02 02:08:37;;;;;;;;;;;;;;;11.52;63.09;96791.02;1794899;78;26307;-84
2021/11/02 02:11:20;;;;;;;;;;;;;;;11.45;63.29;96787.39;1738299;81;24502;-83
2021/11/02 02:14:00;;;;;;;;;;;;;;;11.35;63.55;96787.16;1734943;81;20292;-83
2021/11/02 02:16:40;;;;;;;;;;;;;;;11.30;63.76;96783.17;1755166;80;24495;-84
2021/11/02 02:19:25;;;;;;;;;;;;;;;11.31;63.97;96787.92;1794092;78;21949;-91
2021/11/02 02:21:53;;;;;;;;;;;;;;;11.28;64.20;96785.63;1764193;80;26026;-82
2021/11/02 02:24:23;;;;;;;;;;;;;;;11.22;64.37;96785.73;1797038;78;24453;-84
2021/11/02 02:26:51;;;;;;;;;;;;;;;11.18;64.55;96784.37;1764169;80;20215;-89
2021/11/02 02:29:19;;;;;;;;;;;;;;;11.23;64.73;96784.77;1795693;77;24820;-85
2021/11/02 02:31:47;;;;;;;;;;;;;;;11.24;64.89;96789.01;1793360;78;23063;-82
2021/11/02 02:34:15;;;;;;;;;;;;;;;11.26;65.07;96787.08;1763270;80;25999;-82
2021/11/02 02:36:42;;;;;;;;;;;;;;;11.27;65.22;96788.73;1796551;78;24491;-89
2021/11/02 02:39:10;;;;;;;;;;;;;;;11.26;65.35;96783.14;1789387;78;20470;-89
2021/11/02 02:41:37;;;;;;;;;;;;;;;11.22;65.48;96783.13;1798367;78;24236;-83
2021/11/02 02:44:04;;;;;;;;;;;;;;;11.22;65.61;96773.13;1764099;80;22270;-84
2021/11/02 02:46:30;;;;;;;;;;;;;;;11.19;65.72;96759.02;1796257;78;25952;-88
2021/11/02 02:48:57;;;;;;;;;;;;;;;11.14;65.86;96753.41;1768089;79;24669;-87
2021/11/02 02:51:24;;;;;;;;;;;;;;;11.08;65.97;96754.02;1766150;79;20198;-88
2021/11/02 02:53:51;;;;;;;;;;;;;;;11.08;66.10;96760.08;1763803;79;24844;-85
2021/11/02 02:56:18;;;;;;;;;;;;;;;11.09;66.22;96755.66;1766239;79;22080;-86
2021/11/02 02:58:46;;;;;;;;;;;;;;;11.09;66.35;96753.87;1764142;79;25971;-87
2021/11/02 03:01:13;;;;;;;;;;;;;;;11.04;66.47;96753.98;1766893;79;24535;-84
2021/11/02 03:03:41;;;;;;;;;;;;;;;11.01;66.58;96748.59;1772103;79;20471;-87
2021/11/02 03:06:10;;;;;;;;;;;;;;;10.97;66.72;96744.60;1789428;79;25511;-82
2021/11/02 03:08:36;;;;;;;;;;;;;;;10.93;66.81;96747.20;1792760;78;22033;-82
2021/11/02 03:11:03;;;;;;;;;;;;;;;10.90;66.95;96744.89;1748361;80;25996;-85
2021/11/02 03:13:32;;;;;;;;;;;;;;;10.85;67.05;96749.27;1771066;79;24440;-87
2021/11/02 03:16:03;;;;;;;;;;;;;;;10.90;67.19;96746.20;1783143;79;20466;-83
2021/11/02 03:18:39;;;;;;;;;;;;;;;10.89;67.33;96744.55;1788393;79;24843;-83
2021/11/02 03:57:10;;;;;;;;;;;;;;;10.94;68.91;96712.20;1713641;82;20299;-83
2021/11/02 04:00:00;;;;;;;;;;;;;;;11.04;68.99;96716.86;1747067;80;24868;-84
2021/11/02 04:22:12;;;;;;;;;;;;;;;11.08;69.08;96708.20;1744945;80;22026;-87
2021/11/02 04:27:05;;;;;;;;;;;;;;;10.95;69.85;96703.38;1739696;80;24774;-89
2021/11/02 04:32:37;;;;;;;;;;;;;;;10.91;70.04;96687.63;1716115;82;25932;-89
2021/11/02 04:35:08;;;;;;;;;;;;;;;10.90;70.16;96689.45;1745894;80;24537;-90
2021/11/02 05:10:37;;;;;;;;;;;;;;;10.52;71.48;96671.95;1741735;81;22029;-86
2021/11/02 05:56:13;;;;;;;;;;;;;;;10.55;73.26;96680.78;1783154;79;24620;-82
2021/11/02 06:03:44;;;;;;;;;;;;;;;10.54;73.51;96694.34;1784638;79;22085;-87
2021/11/02 06:06:18;;;;;;;;;;;;;;;10.52;73.58;96697.62;1785513;79;26791;-87
2021/11/02 06:28:13;;;;;;;;;;;;;;;10.82;74.26;96730.41;1751112;80;24783;-91
2021/11/02 06:30:47;;;;;;;;;;;;;;;10.92;74.34;96737.69;1789039;79;22233;-91
2021/11/02 07:19:31;;;;;;;;;;;;;;;11.39;74.96;96762.30;1728359;81;20254;-86
2021/11/02 07:22:13;;;;;;;;;;;;;;;11.26;74.97;96759.58;1727327;81;24807;-85
2021/11/02 07:24:36;;;;;;;;;;;;;;;11.31;74.99;96763.88;1716878;81;22007;-84
2021/11/02 07:30:21;;;;;;;;;;;;;;;11.26;75.02;96771.36;1738120;81;24466;-84
2021/11/02 08:46:55;;;;;;;;;;;;;;;11.38;76.73;96762.78;1741677;81;22020;-89
2021/11/02 08:49:19;;;;;;;;;;;;;;;11.48;76.81;96761.36;1754128;79;26053;-89
2021/11/02 08:51:46;;;;;;;;;;;;;;;11.49;76.86;96754.67;1782943;79;24428;-90
2021/11/02 08:54:14;;;;;;;;;;;;;;;11.48;76.88;96759.57;1782233;79;20240;-90
2021/11/02 08:56:46;;;;;;;;;;;;;;;11.51;76.94;96763.17;1784065;79;24496;-90
2021/11/02 08:59:12;;;;;;;;;;;;;;;11.59;76.97;96762.42;1760598;79;21875;-90
2021/11/02 09:01:40;;;;;;;;;;;;;;;11.69;77.00;96760.52;1782538;79;26043;-90
2021/11/02 09:04:08;;;;;;;;;;;;;;;11.70;77.04;96763.48;1779053;79;23837;-90
2021/11/02 09:06:34;;;;;;;;;;;;;;;11.68;77.02;96757.55;1790360;79;20287;-89
2021/11/02 09:09:04;;;;;;;;;;;;;;;11.71;77.03;96759.88;1750050;80;25003;-89
2021/11/02 09:11:30;;;;;;;;;;;;;;;11.69;77.04;96756.09;1781317;79;21959;-87
2021/11/02 09:13:57;;;;;;;;;;;;;;;11.67;77.03;96761.17;1769970;79;26024;-87
2021/11/02 09:16:24;;;;;;;;;;;;;;;11.65;77.03;96761.33;1769297;79;24445;-87
2021/11/02 09:18:51;;;;;;;;;;;;;;;11.64;77.06;96757.53;1777733;79;20236;-88
2021/11/02 09:21:21;;;;;;;;;;;;;;;11.65;77.07;96760.50;1783521;79;24872;-85
2021/11/02 09:23:49;;;;;;;;;;;;;;;11.64;77.10;96761.47;1775973;79;21999;-83
2021/11/02 09:26:17;;;;;;;;;;;;;;;11.68;77.14;96758.86;1779963;79;25974;-83
2021/11/02 09:28:44;;;;;;;;;;;;;;;11.74;77.19;96763.52;1771583;79;24662;-87
2021/11/02 09:31:10;;;;;;;;;;;;;;;11.77;77.25;96765.02;1776454;79;20223;-87
2021/11/02 09:33:38;;;;;;;;;;;;;;;11.77;77.26;96771.09;1768028;79;24750;-90
2021/11/02 09:36:06;;;;;;;;;;;;;;;11.78;77.28;96760.95;1774995;79;22219;-89
2021/11/02 09:38:40;;;;;;;;;;;;;;;11.77;77.33;96751.44;1768607;79;25984;-89
2021/11/02 09:41:23;;;;;;;;;;;;;;;11.82;77.36;96753.09;1781006;79;24876;-89
2021/11/02 09:44:09;;;;;;;;;;;;;;;11.93;77.42;96763.31;1783221;79;20243;-89
2021/11/02 09:46:41;;;;;;;;;;;;;;;12.02;77.45;96764.16;1744024;80;24749;-90
2021/11/02 09:49:26;;;;;;;;;;;;;;;12.04;77.49;96761.73;1782549;79;22067;-89
2021/11/02 09:52:03;;;;;;;;;;;;;;;12.04;77.51;96759.11;1701246;82;26270;-82
2021/11/02 09:54:48;;;;;;;;;;;;;;;12.09;77.51;96758.63;1743329;80;24504;-83
2021/11/02 09:57:17;;;;;;;;;;;;;;;12.14;77.52;96770.30;1741429;81;20298;-83
2021/11/02 09:59:48;;;;;;;;;;;;;;;12.15;77.51;96765.39;1742479;80;24862;-83
2021/11/02 10:02:28;;;;;;;;;;;;;;;12.18;77.52;96762.92;1747534;80;22981;-83
2021/11/02 10:05:14;;;;;;;;;;;;;;;12.13;77.51;96756.84;1738917;80;25697;-83
2021/11/02 10:07:46;;;;;;;;;;;;;;;12.13;77.49;96763.89;1737046;80;24520;-83
2021/11/02 10:10:14;;;;;;;;;;;;;;;12.11;77.49;96760.59;1752998;80;20243;-83
2021/11/02 10:12:49;;;;;;;;;;;;;;;12.06;77.51;96756.31;1746676;80;24910;-83
2021/11/02 10:15:24;;;;;;;;;;;;;;;12.03;77.50;96748.28;1721990;82;22264;-83
2021/11/02 10:18:05;;;;;;;;;;;;;;;12.05;77.49;96752.07;1739703;80;26778;-83
2021/11/02 10:20:50;;;;;;;;;;;;;;;12.11;77.52;96750.92;1732624;80;24708;-84
2021/11/02 10:23:26;;;;;;;;;;;;;;;12.12;77.55;96750.44;1734121;80;20210;-84
2021/11/02 10:26:11;;;;;;;;;;;;;;;12.08;77.55;96751.25;1718906;82;24942;-83
2021/11/02 10:28:45;;;;;;;;;;;;;;;12.08;77.55;96753.87;1733623;80;21980;-83
2021/11/02 10:31:12;;;;;;;;;;;;;;;12.08;77.55;96751.25;1748379;80;25851;-84
2021/11/02 10:33:40;;;;;;;;;;;;;;;12.06;77.57;96745.33;1747455;80;24486;-84
2021/11/02 10:36:26;;;;;;;;;;;;;;;12.11;77.58;96743.55;1711250;82;20346;-88
2021/11/02 10:39:13;;;;;;;;;;;;;;;12.10;77.59;96748.00;1745640;80;24993;-88
2021/11/02 10:41:54;;;;;;;;;;;;;;;12.06;77.59;96749.27;1662644;85;21966;-88
2021/11/02 10:44:22;;;;;;;;;;;;;;;12.02;77.60;96741.88;1669991;84;26183;-86
2021/11/02 10:46:50;;;;;;;;;;;;;;;11.93;77.56;96742.34;1702627;80;24498;-87
2021/11/02 10:49:24;;;;;;;;;;;;;;;11.82;77.52;96741.79;1745110;80;20296;-86
2021/11/02 10:51:51;;;;;;;;;;;;;;;11.71;77.51;96741.54;1749416;80;24671;-86
2021/11/02 10:54:20;;;;;;;;;;;;;;;11.60;77.46;96741.31;1724851;80;23412;-85
2021/11/02 10:57:07;;;;;;;;;;;;;;;11.50;77.42;96738.47;1786660;79;26037;-85
2021/11/02 10:59:40;;;;;;;;;;;;;;;11.33;77.38;96741.47;1777528;79;24438;-85
2021/11/02 11:02:04;;;;;;;;;;;;;;;11.18;77.34;96737.77;1784675;79;20205;-85
2021/11/02 11:04:32;;;;;;;;;;;;;;;11.10;77.34;96739.81;1786853;79;25597;-83
2021/11/02 11:06:58;;;;;;;;;;;;;;;11.02;77.34;96741.05;1775321;79;21975;-83
2021/11/02 11:09:27;;;;;;;;;;;;;;;10.97;77.36;96740.67;1789354;79;26023;-83
2021/11/02 11:11:57;;;;;;;;;;;;;;;10.86;77.36;96746.14;1757677;80;25330;-83
2021/11/02 11:14:25;;;;;;;;;;;;;;;10.77;77.38;96742.64;1784944;78;20272;-85
2021/11/02 11:16:51;;;;;;;;;;;;;;;10.73;77.39;96748.33;1770215;79;24832;-86
2021/11/02 11:19:32;;;;;;;;;;;;;;;10.71;77.44;96746.33;1788518;79;21788;-85
2021/11/02 11:22:00;;;;;;;;;;;;;;;10.68;77.49;96748.78;1786617;79;26077;-86
2021/11/02 11:24:36;;;;;;;;;;;;;;;10.64;77.57;96743.97;1785998;79;24499;-88
2021/11/02 11:27:07;;;;;;;;;;;;;;;10.60;77.62;96742.62;1785765;79;20434;-88
2021/11/02 11:29:41;;;;;;;;;;;;;;;10.55;77.63;96740.94;1752952;80;24991;-88
2021/11/02 11:32:07;;;;;;;;;;;;;;;10.54;77.73;96737.98;1788283;79;22047;-88
2021/11/02 11:34:38;;;;;;;;;;;;;;;10.55;77.77;96732.61;1791420;79;26050;-89
2021/11/02 11:37:06;;;;;;;;;;;;;;;10.58;77.89;96731.51;1767705;79;24408;-88
2021/11/02 11:39:40;;;;;;;;;;;;;;;10.61;78.00;96732.02;1784278;79;20231;-89
2021/11/02 11:42:11;;;;;;;;;;;;;;;10.63;78.11;96730.58;1788358;79;24759;-88
2021/11/02 11:44:39;;;;;;;;;;;;;;;10.60;78.17;96722.53;1786067;79;22983;-88
2021/11/02 11:47:14;;;;;;;;;;;;;;;10.61;78.25;96728.58;1786928;79;26211;-88
2021/11/02 11:49:44;;;;;;;;;;;;;;;10.61;78.34;96728.10;1774131;79;24450;-88
2021/11/02 11:52:10;;;;;;;;;;;;;;;10.57;78.40;96726.77;1731029;80;20509;-88
2021/11/02 11:54:46;;;;;;;;;;;;;;;10.56;78.44;96731.65;1734980;81;24951;-88
2021/11/02 11:57:29;;;;;;;;;;;;;;;10.51;78.49;96728.66;1737156;81;21960;-88
2021/11/02 12:00:00;;;;;;;;;;;;;;;10.47;78.54;96733.34;1680359;83;25891;-87
2021/11/02 12:02:28;;;;;;;;;;;;;;;10.43;78.57;96734.62;1687463;83;24437;-88
2021/11/02 12:04:55;;;;;;;;;;;;;;;10.41;78.62;96737.88;1695280;83;20267;-87
2021/11/02 12:07:41;;;;;;;;;;;;;;;10.38;78.65;96750.41;1727450;81;25555;-87
2021/11/02 12:10:10;;;;;;;;;;;;;;;10.34;78.69;96734.69;1728925;81;22029;-87
2021/11/02 12:12:38;;;;;;;;;;;;;;;10.34;78.73;96736.81;1694172;83;26183;-87
2021/11/02 12:15:08;;;;;;;;;;;;;;;10.34;78.78;96738.61;1705657;82;25215;-86
2021/11/02 12:17:36;;;;;;;;;;;;;;;10.35;78.84;96734.55;1719556;82;20247;-87
2021/11/02 12:20:15;;;;;;;;;;;;;;;10.38;78.91;96730.80;1723154;81;24669;-87
2021/11/02 12:22:54;;;;;;;;;;;;;;;10.38;78.98;96733.41;1729137;81;22079;-87
2021/11/02 12:25:26;;;;;;;;;;;;;;;10.41;79.05;96733.14;1724850;81;26549;-87
2021/11/02 12:27:52;;;;;;;;;;;;;;;10.42;79.11;96735.58;1692375;83;25274;-85
2021/11/02 12:30:20;;;;;;;;;;;;;;;10.43;79.14;96735.09;1724263;81;20295;-84
2021/11/02 12:32:50;;;;;;;;;;;;;;;10.42;79.17;96731.66;1729298;81;24920;-84
2021/11/02 12:35:35;;;;;;;;;;;;;;;10.44;79.22;96738.05;1721410;82;22390;-84
2021/11/02 12:38:04;;;;;;;;;;;;;;;10.48;79.26;96737.61;1717968;81;21346;-85
2021/11/02 12:40:32;;;;;;;;;;;;;;;10.48;79.30;96744.15;1706986;82;24270;-84
2021/11/02 12:42:59;;;;;;;;;;;;;;;10.48;79.34;96744.63;1727849;81;20269;-84
2021/11/02 12:45:30;;;;;;;;;;;;;;;10.48;79.38;96745.94;1728788;81;24824;-84
2021/11/02 12:47:59;;;;;;;;;;;;;;;10.52;79.40;96740.77;1700077;83;22063;-84
2021/11/02 12:50:30;;;;;;;;;;;;;;;10.54;79.43;96742.73;1722814;79;26067;-84
2021/11/02 12:53:01;;;;;;;;;;;;;;;10.61;79.48;96745.59;1768106;79;24658;-84
2021/11/02 12:55:28;;;;;;;;;;;;;;;10.61;79.51;96744.28;1763834;79;20456;-84
2021/11/02 12:58:02;;;;;;;;;;;;;;;10.63;79.56;96743.66;1768539;79;24738;-85
2021/11/02 13:00:28;;;;;;;;;;;;;;;10.67;79.56;96744.52;1782197;79;22057;-84
2021/11/02 13:05:46;;;;;;;;;;;;;;;10.77;79.61;96741.33;1749938;80;24493;-87
2021/11/02 13:08:19;;;;;;;;;;;;;;;10.77;79.61;96741.33;1788513;79;20287;-88
2021/11/02 13:10:42;;;;;;;;;;;;;;;10.76;79.61;96746.70;1747024;80;24830;-87
2021/11/02 13:13:12;;;;;;;;;;;;;;;10.75;79.59;96741.95;1786898;79;22232;-86
2021/11/02 13:15:49;;;;;;;;;;;;;;;10.76;79.55;96742.78;1760983;79;26080;-87
2021/11/02 13:18:28;;;;;;;;;;;;;;;10.74;79.53;96748.67;1775289;78;24625;-86
2021/11/02 13:21:00;;;;;;;;;;;;;;;10.69;79.49;96749.61;1788846;79;20306;-87
2021/11/02 13:23:26;;;;;;;;;;;;;;;10.62;79.49;96751.16;1749439;80;24797;-88
2021/11/02 13:25:52;;;;;;;;;;;;;;;10.60;79.47;96749.17;1753418;80;21970;-87
2021/11/02 13:28:18;;;;;;;;;;;;;;;10.51;79.45;96749.58;1786403;79;26042;-87
2021/11/02 13:30:49;;;;;;;;;;;;;;;10.43;79.41;96745.56;1753067;80;20359;-87
2021/11/02 13:33:18;;;;;;;;;;;;;;;10.38;79.40;96748.63;1789287;79;20271;-87
2021/11/02 13:35:50;;;;;;;;;;;;;;;10.34;79.40;96752.51;1765903;79;24761;-88
2021/11/02 13:38:23;;;;;;;;;;;;;;;10.30;79.41;96746.41;1764083;79;22011;-85
2021/11/02 13:40:51;;;;;;;;;;;;;;;10.21;79.38;96746.79;1750914;80;26002;-84
2021/11/02 13:43:31;;;;;;;;;;;;;;;10.11;79.39;96753.83;1785102;79;24718;-85
2021/11/02 13:45:58;;;;;;;;;;;;;;;9.97;79.35;96740.78;1786687;79;20284;-88
2021/11/02 13:48:26;;;;;;;;;;;;;;;9.88;79.30;96748.63;1784625;79;24744;-87
2021/11/02 13:50:52;;;;;;;;;;;;;;;9.79;79.29;96749.50;1776018;79;22824;-88
2021/11/02 13:53:18;;;;;;;;;;;;;;;9.75;79.31;96762.05;1724126;80;25982;-84
2021/11/02 13:55:45;;;;;;;;;;;;;;;9.72;79.35;96757.09;1739241;80;25272;-84
2021/11/02 13:58:12;;;;;;;;;;;;;;;9.68;79.37;96755.73;1716638;82;20194;-84
2021/11/02 14:00:39;;;;;;;;;;;;;;;9.62;79.39;96762.34;1744802;80;24916;-84
2021/11/02 14:03:13;;;;;;;;;;;;;;;9.57;79.39;96755.91;1716003;82;22806;-84
2021/11/02 14:05:40;;;;;;;;;;;;;;;9.51;79.42;96757.29;1748495;80;26072;-87
2021/11/02 14:08:06;;;;;;;;;;;;;;;9.46;79.44;96759.50;1748542;80;24597;-88
2021/11/02 14:10:32;;;;;;;;;;;;;;;9.42;79.44;96756.84;1739072;80;20299;-86
2021/11/02 14:12:58;;;;;;;;;;;;;;;9.38;79.45;96753.36;1739947;80;24743;-88
2021/11/02 14:15:29;;;;;;;;;;;;;;;9.35;79.44;96754.92;1735909;80;22815;-87
2021/11/02 14:18:05;;;;;;;;;;;;;;;9.35;79.50;96753.62;1744672;80;26031;-87
2021/11/02 14:20:36;;;;;;;;;;;;;;;9.32;79.50;96761.27;1742394;80;24471;-87
2021/11/02 14:23:06;;;;;;;;;;;;;;;9.30;79.51;96755.83;1732442;80;20217;-86
2021/11/02 14:25:42;;;;;;;;;;;;;;;9.28;79.50;96757.74;1746962;80;24734;-87
2021/11/02 14:28:08;;;;;;;;;;;;;;;9.27;79.51;96753.52;1713979;82;22037;-87
2021/11/02 14:30:41;;;;;;;;;;;;;;;9.25;79.52;96757.56;1748134;80;25949;-87
2021/11/02 14:33:12;;;;;;;;;;;;;;;9.22;79.52;96759.13;1750050;80;23885;-88
2021/11/02 14:35:40;;;;;;;;;;;;;;;9.21;79.53;96761.42;1738852;80;20155;-85
2021/11/02 14:38:07;;;;;;;;;;;;;;;9.20;79.54;96764.51;1746269;79;24233;-87
2021/11/02 14:40:35;;;;;;;;;;;;;;;9.21;79.54;96762.73;1744858;80;21912;-87
2021/11/02 14:43:17;;;;;;;;;;;;;;;9.19;79.56;96767.25;1746294;80;25996;-87
2021/11/02 14:45:49;;;;;;;;;;;;;;;9.19;79.55;96771.98;1720967;82;22349;-87
2021/11/02 14:48:28;;;;;;;;;;;;;;;9.17;79.59;96780.91;1742427;80;20260;-87
2021/11/02 14:50:56;;;;;;;;;;;;;;;9.15;79.59;96778.45;1708522;80;24829;-85
2021/11/02 14:53:37;;;;;;;;;;;;;;;9.12;79.61;96781.80;1751830;80;21991;-88
2021/11/02 14:56:05;;;;;;;;;;;;;;;9.13;79.63;96779.55;1781463;79;26121;-84
2021/11/02 14:58:42;;;;;;;;;;;;;;;9.15;79.65;96777.16;1755314;80;24529;-84
2021/11/02 15:01:14;;;;;;;;;;;;;;;9.14;79.66;96765.06;1782514;79;20205;-86
2021/11/02 15:03:45;;;;;;;;;;;;;;;9.15;79.67;96776.33;1785068;79;24774;-86
2021/11/02 15:06:12;;;;;;;;;;;;;;;9.14;79.70;96772.06;1744325;80;22093;-86
2021/11/02 15:08:40;;;;;;;;;;;;;;;9.11;79.68;96774.45;1740231;81;26105;-86
2021/11/02 15:11:07;;;;;;;;;;;;;;;9.07;79.69;96779.61;1777425;79;24475;-86
2021/11/02 15:13:33;;;;;;;;;;;;;;;9.04;79.66;96784.30;1786653;79;20343;-86
2021/11/02 15:16:00;;;;;;;;;;;;;;;9.00;79.65;96781.12;1776920;79;24806;-84
2021/11/02 15:18:43;;;;;;;;;;;;;;;8.99;79.65;96783.41;1775123;79;22148;-84
2021/11/02 15:21:10;;;;;;;;;;;;;;;8.98;79.65;96784.84;1769471;79;25980;-85
2021/11/02 15:23:38;;;;;;;;;;;;;;;8.96;79.66;96778.93;1769363;79;24381;-84
2021/11/02 15:26:04;;;;;;;;;;;;;;;8.95;79.65;96778.58;1783394;79;20510;-84
2021/11/02 15:28:30;;;;;;;;;;;;;;;8.93;79.65;96774.00;1779278;79;20283;-84
2021/11/02 15:31:03;;;;;;;;;;;;;;;8.91;79.67;96782.44;1784999;79;22130;-84
2021/11/02 15:33:33;;;;;;;;;;;;;;;8.89;79.67;96786.47;1783102;79;25924;-84
2021/11/02 15:35:58;;;;;;;;;;;;;;;8.86;79.65;96787.23;1785280;79;24500;-87
2021/11/02 15:38:27;;;;;;;;;;;;;;;8.85;79.67;96789.50;1759877;79;20284;-85
2021/11/02 15:40:53;;;;;;;;;;;;;;;8.84;79.67;96789.18;1778972;79;24835;-86
2021/11/02 15:43:19;;;;;;;;;;;;;;;8.84;79.67;96795.19;1773533;79;22022;-85
2021/11/02 15:45:47;;;;;;;;;;;;;;;8.84;79.69;96795.70;1772516;79;25913;-85
2021/11/02 15:48:14;;;;;;;;;;;;;;;8.84;79.68;96804.83;1785034;79;24465;-87
2021/11/02 15:50:45;;;;;;;;;;;;;;;8.84;79.70;96803.53;1767073;79;20225;-87
2021/11/02 15:53:12;;;;;;;;;;;;;;;8.84;79.72;96810.05;1769187;79;24760;-87
2021/11/02 15:55:38;;;;;;;;;;;;;;;8.84;79.70;96813.45;1773280;79;22742;-87
2021/11/02 15:58:06;;;;;;;;;;;;;;;8.86;79.70;96813.33;1735914;81;26128;-87
2021/11/02 16:00:33;;;;;;;;;;;;;;;8.81;79.71;96811.95;1763990;79;24413;-87
2021/11/02 16:03:00;;;;;;;;;;;;;;;8.82;79.68;96820.61;1772779;79;20277;-87
2021/11/02 16:05:27;;;;;;;;;;;;;;;8.83;79.69;96826.66;1774370;79;24768;-87
2021/11/02 16:07:53;;;;;;;;;;;;;;;8.81;79.68;96829.39;1777602;79;22091;-87
2021/11/02 16:10:29;;;;;;;;;;;;;;;8.83;79.71;96829.26;1763949;79;26044;-87
2021/11/02 16:12:55;;;;;;;;;;;;;;;8.86;79.71;96835.50;1769472;79;24532;-87
2021/11/02 16:15:25;;;;;;;;;;;;;;;8.88;79.72;96846.16;1763932;79;20298;-87
2021/11/02 16:17:52;;;;;;;;;;;;;;;8.91;79.75;96846.34;1765806;79;25625;-87
2021/11/02 16:20:20;;;;;;;;;;;;;;;8.91;79.75;96850.27;1763752;79;22361;-88
2021/11/02 16:22:48;;;;;;;;;;;;;;;8.92;79.76;96850.61;1773096;79;26032;-84
2021/11/02 16:25:14;;;;;;;;;;;;;;;8.95;79.76;96855.55;1778917;79;24468;-84
2021/11/02 16:27:40;;;;;;;;;;;;;;;8.99;79.75;96863.47;1741637;81;20216;-84
2021/11/02 16:30:11;;;;;;;;;;;;;;;9.00;79.74;96867.73;1776060;79;20239;-84
2021/11/02 16:32:36;;;;;;;;;;;;;;;9.02;79.75;96869.70;1775197;79;22340;-84
2021/11/02 16:35:03;;;;;;;;;;;;;;;9.02;79.76;96872.31;1776301;79;26655;-84
2021/11/02 16:37:34;;;;;;;;;;;;;;;9.02;79.75;96867.92;1777465;79;25102;-83
2021/11/02 16:40:17;;;;;;;;;;;;;;;9.01;79.77;96875.40;1775947;79;20229;-84
2021/11/02 16:42:44;;;;;;;;;;;;;;;8.96;79.75;96878.90;1701957;83;24769;-83
2021/11/02 16:45:11;;;;;;;;;;;;;;;8.95;79.72;96890.28;1705876;81;22059;-84
2021/11/02 16:47:37;;;;;;;;;;;;;;;8.95;79.74;96888.16;1738936;81;25977;-83
2021/11/02 16:50:04;;;;;;;;;;;;;;;8.94;79.73;96886.05;1740276;81;20753;-83
2021/11/02 16:52:31;;;;;;;;;;;;;;;8.93;79.74;96897.92;1742465;81;20228;-83
2021/11/02 16:55:07;;;;;;;;;;;;;;;8.93;79.76;96897.92;1751514;81;24785;-84
2021/11/02 16:57:35;;;;;;;;;;;;;;;8.93;79.76;96892.70;1741869;81;21966;-84
2021/11/02 17:00:04;;;;;;;;;;;;;;;8.92;79.80;96893.17;1736345;81;26142;-84
2021/11/02 17:02:30;;;;;;;;;;;;;;;8.92;79.79;96897.56;1741210;81;24629;-84
2021/11/02 17:05:02;;;;;;;;;;;;;;;8.91;79.80;96890.22;1741675;80;20509;-88
2021/11/02 17:07:31;;;;;;;;;;;;;;;8.92;79.82;96895.78;1749803;81;24833;-88
2021/11/02 17:09:59;;;;;;;;;;;;;;;8.92;79.86;96893.66;1728334;82;22002;-88
2021/11/02 17:12:25;;;;;;;;;;;;;;;8.92;79.87;96902.31;1741110;81;26805;-88
2021/11/02 17:14:51;;;;;;;;;;;;;;;8.92;79.90;96908.00;1753764;81;20315;-88
2021/11/02 17:17:17;;;;;;;;;;;;;;;8.91;79.90;96908.95;1751467;81;20177;-88
2021/11/02 17:19:44;;;;;;;;;;;;;;;8.87;79.91;96903.67;1745052;81;24780;-88
2021/11/02 17:22:10;;;;;;;;;;;;;;;8.84;79.94;96902.65;1745259;80;22057;-87
2021/11/02 17:24:36;;;;;;;;;;;;;;;8.84;79.96;96902.65;1745259;81;21000;-87
2021/11/02 17:27:02;;;;;;;;;;;;;;;8.83;79.98;96903.59;1744524;81;24558;-88
2021/11/02 17:29:29;;;;;;;;;;;;;;;8.82;80.01;96907.98;1717945;82;20521;-88
2021/11/02 17:31:56;;;;;;;;;;;;;;;8.82;80.04;96913.20;1745265;81;25540;-88
2021/11/02 17:34:23;;;;;;;;;;;;;;;8.81;80.08;96912.85;1745010;80;22869;-86
2021/11/02 17:36:56;;;;;;;;;;;;;;;8.78;80.12;96914.44;1743556;81;26073;-89
2021/11/02 17:39:23;;;;;;;;;;;;;;;8.78;80.15;96922.27;1743531;80;25150;-88
2021/11/02 17:41:50;;;;;;;;;;;;;;;8.77;80.18;96922.73;1744992;81;20565;-88
2021/11/02 17:44:17;;;;;;;;;;;;;;;8.76;80.21;96922.39;1744246;81;24840;-88
2021/11/02 17:46:49;;;;;;;;;;;;;;;8.76;80.24;96925.47;1742683;80;22795;-88
2021/11/02 17:49:15;;;;;;;;;;;;;;;8.74;80.27;96924.29;1744588;80;26625;-88
2021/11/02 17:51:41;;;;;;;;;;;;;;;8.75;80.33;96928.55;1744770;81;25222;-87
2021/11/02 17:54:08;;;;;;;;;;;;;;;8.73;80.36;96934.38;1778128;79;20250;-87